Flight Track Log - Related Links

Times and Time Zones

All times are in EDT time to prevent confusion due to time zone crossing. See the SWA1586 flight status page for this flight to view local times or setup timezone preferences in your user account.

Time Position Orientation Groundspeed Altitude Reporting Facility
EDT Latitude Longitude Course Direction KTS MPH feet Rate Location/Type
Wed 08:59:00 AM 34.0531 -117.5750 44° Northeast 161 185 29,000  Level Los Angeles Center
Wed 09:00:00 AM 34.0172 -117.5883 197° South 240 276 3,700 -11,058 Descending Los Angeles Center
Wed 09:01:01 AM 34.0381 -117.6614 289° West 242 278 6,700 2,628 Climbing Los Angeles Center
Wed 09:02:01 AM 34.0628 -117.7389 291° West 242 278 9,000 2,281 Climbing Los Angeles Center
Wed 09:03:02 AM 34.0961 -117.8092 300° West 244 281 11,300 2,754 Climbing Los Angeles Center
Wed 09:04:00 AM 34.4067 -117.1896 44° Northeast  Level Estimated
Wed 09:04:03 AM 34.1681 -117.7908 12° North 286 329 14,600  Level Los Angeles Center
Wed 09:05:03 AM 34.2197 -117.7131 51° Northeast 298 343 17,800 2,083 Climbing Los Angeles Center
Wed 09:06:04 AM 34.2794 -117.6222 51° Northeast 348 400 18,800 1,672 Climbing Los Angeles Center
Wed 09:07:05 AM 34.3492 -117.5156 52° Northeast 399 459 21,200 2,430 Climbing Los Angeles Center
Wed 09:08:05 AM 34.4106 -117.4228 51° Northeast 411 473 23,700 2,727 Climbing Los Angeles Center
Wed 09:09:06 AM 34.4828 -117.3136 51° Northeast 417 480 26,700 2,607 Climbing Los Angeles Center
Wed 09:10:07 AM 34.5686 -117.1817 52° Northeast 417 480 29,000 1,140 Climbing Los Angeles Center
Wed 09:11:07 AM 34.6408 -117.0700 52° Northeast 419 482 29,000  Level Los Angeles Center
Wed 09:12:08 AM 34.7144 -116.9589 51° Northeast 421 484 29,000  Level Los Angeles Center
Wed 09:13:09 AM 34.7858 -116.8472 52° Northeast 421 484 29,000  Level Los Angeles Center
Wed 09:14:10 AM 34.8586 -116.7353 52° Northeast 421 484 29,000 -344 Level Los Angeles Center
Wed 09:15:11 AM 34.9306 -116.6228 52° Northeast 421 484 28,300 -1,328 Descending Los Angeles Center
Wed 09:16:12 AM 35.0067 -116.5183 48° Northeast 418 481 26,300 -1,983 Descending Los Angeles Center
Wed 09:17:12 AM 35.0850 -116.4228 45° Northeast 406 467 24,300 -1,140 Descending Los Angeles Center
Wed 09:18:13 AM 35.1606 -116.3264 46° Northeast 400 460 24,000 -148 Descending Los Angeles Center
Wed 09:19:14 AM 35.2406 -116.2297 45° Northeast 400 460 24,000 -934 Level Los Angeles Center
Wed 09:20:15 AM 35.3147 -116.1328 47° Northeast 398 458 22,100 -2,066 Descending Los Angeles Center
Wed 09:21:16 AM 35.4056 -116.0181 46° Northeast 396 456 19,800 -2,164 Descending Los Angeles Center
Wed 09:22:17 AM 35.4831 -115.9253 44° Northeast 394 453 17,700 -1,918 Descending Los Angeles Center
Wed 09:23:18 AM 35.5539 -115.8317 47° Northeast 385 443 15,900 -1,906 Descending Los Angeles Center
Wed 09:23:42 AM 35.5889 -115.7925 42° Northeast 380 437 15,000 -1,869 Descending Los Angeles Center
Wed 09:24:19 AM 35.6253 -115.7428 48° Northeast 376 433 14,000 -2,073 Descending Los Angeles Center
Wed 09:24:37 AM 35.6536 -115.7111 42° Northeast 357 411 13,100 -2,613 Descending Los Angeles Center
Wed 09:25:21 AM 35.6908 -115.6522 52° Northeast 367 422 11,300 -2,727 Descending Los Angeles Center
Wed 09:25:32 AM 35.7003 -115.6275 65° Northeast 361 415 10,600 -1,377 Descending Los Angeles Center
Wed 09:26:22 AM 35.7364 -115.5319 65° Northeast 367 422 9,900 -716 Descending Los Angeles Center
Wed 09:26:39 AM 35.7478 -115.5064 61° Northeast 315 362 9,800 -1,180 Descending Los Angeles Center
Wed 09:27:23 AM 35.7747 -115.4461 61° Northeast 293 337 8,700 -1,600 Descending Los Angeles Center
Wed 09:27:39 AM 35.7908 -115.4261 45° Northeast 275 316 8,200 -1,082 Descending Los Angeles Center
Wed 09:28:24 AM 35.8311 -115.3700 48° Northeast 282 325 7,600 -1,075 Descending Los Angeles Center
Wed 09:28:46 AM 35.8497 -115.3486 43° Northeast 262 302 7,000 -1,377 Descending Los Angeles Center
Wed 09:29:25 AM 35.8825 -115.3125 42° Northeast 256 295 6,200 -1,279 Descending Los Angeles Center
Wed 09:29:47 AM 35.9006 -115.2950 38° Northeast 237 273 5,700 -885 Descending Los Angeles Center
Wed 09:30:26 AM 35.9311 -115.2608 42° Northeast 238 274 5,300 -590 Descending Los Angeles Center
Wed 09:30:48 AM 35.9481 -115.2447 38° Northeast 223 257 5,100 -484 Descending Los Angeles Center
Wed 09:31:28 AM 35.9761 -115.2264 28° Northeast 192 221 4,800 -778 Descending Los Angeles Center
Wed 09:31:42 AM 35.9861 -115.2217 21° North 152 175 4,400 -1,279 Descending Los Angeles Center
Wed 09:32:29 AM 36.0158 -115.2033 27° Northeast 154 177 3,500 -889 Descending Los Angeles Center
Wed 09:33:30 AM 36.0481 -115.1853 24° Northeast 131 151 2,800 -720 Descending Los Angeles Center
Wed 09:33:44 AM 36.0556 -115.1831 13° North 125 144 2,600 -787 Descending Los Angeles Center
Wed 09:34:31 AM 36.0808 -115.1656 29° Northeast 129 148 2,000 -766 Descending Los Angeles Center
Wed 09:36:00 AM 36.0801 -115.1523 94° East  Level Estimated

Login

Don't have an account? Register now (free) for customized features, flight alerts, and more!